Time;durP1;ratioP1;P1;durP2;ratioP2;P2;SDS_P1;SDS_P2;PMS_P1;PMS_P2;Temp;Humidity;BMP_temperature;BMP_pressure;BME280_temperature;BME280_humidity;BME280_pressure;Samples;Min_cycle;Max_cycle;Signal;HPM_P1;HPM_P2
2022/08/15 00:00:46;;;;;;;;;17.00;15.50;;;;;23.24;62.71;100171.34;5117367;27;45492;-66
2022/08/15 00:03:29;;;;;;;;;16.25;14.50;;;;;23.24;62.36;100166.75;5109674;27;45320;-66
2022/08/15 00:05:58;;;;;;;;;15.50;13.50;;;;;23.25;62.25;100167.59;5102995;27;45459;-67
2022/08/15 00:08:26;;;;;;;;;19.25;16.25;;;;;23.25;62.12;100168.44;5103245;27;45373;-67
2022/08/15 00:10:52;;;;;;;;;17.00;15.50;;;;;23.26;62.34;100158.44;5114291;27;45516;-67
2022/08/15 00:13:23;;;;;;;;;16.25;14.00;;;;;23.30;62.23;100165.28;5124112;27;45226;-67
2022/08/15 00:15:54;;;;;;;;;17.00;14.00;;;;;23.25;62.39;100149.38;5107247;27;45513;-67
2022/08/15 00:18:23;;;;;;;;;16.50;15.25;;;;;23.34;62.44;100158.56;5103086;27;45422;-67
2022/08/15 00:20:49;;;;;;;;;18.50;17.25;;;;;23.31;62.44;100150.69;5104885;27;45650;-67
2022/08/15 00:23:19;;;;;;;;;15.50;14.25;;;;;23.35;62.36;100149.38;5116862;27;45238;-67
2022/08/15 00:25:47;;;;;;;;;15.75;14.50;;;;;23.34;62.31;100147.66;5103119;27;45408;-67
2022/08/15 00:28:14;;;;;;;;;16.75;15.75;;;;;23.35;62.42;100148.53;5110063;27;45253;-67
2022/08/15 00:30:43;;;;;;;;;15.25;15.25;;;;;23.34;62.11;100149.50;5123583;27;45432;-67
2022/08/15 00:33:08;;;;;;;;;17.00;17.00;;;;;23.33;62.26;100153.25;5123912;27;45230;-67
2022/08/15 00:35:36;;;;;;;;;17.75;17.75;;;;;23.31;62.45;100147.97;5123276;27;45330;-67
2022/08/15 00:38:26;;;;;;;;;15.75;15.75;;;;;23.28;62.35;100143.66;5123119;27;47074;-67
2022/08/15 00:43:43;;;;;;;;;17.00;15.75;;;;;23.28;62.30;100143.66;5123690;27;45460;-67
2022/08/15 00:46:11;;;;;;;;;19.25;19.25;;;;;23.27;62.50;100133.78;5123432;27;45502;-67
2022/08/15 00:48:42;;;;;;;;;17.25;15.50;;;;;23.26;62.19;100151.13;5123240;27;46124;-67
2022/08/15 00:51:38;;;;;;;;;16.25;16.25;;;;;23.26;62.06;100136.66;5122219;27;45473;-67
2022/08/15 00:54:09;;;;;;;;;17.50;15.00;;;;;23.24;62.49;100142.25;5067999;27;45427;-67
2022/08/15 00:56:42;;;;;;;;;18.00;18.00;;;;;23.20;62.18;100140.78;5102777;27;45350;-67
2022/08/15 00:59:10;;;;;;;;;17.25;16.25;;;;;23.18;62.29;100142.81;5110442;27;46342;-67
2022/08/15 01:01:36;;;;;;;;;19.25;18.75;;;;;23.18;62.53;100145.53;5123091;27;45450;-67
2022/08/15 01:04:02;;;;;;;;;15.75;14.75;;;;;23.16;62.60;100150.28;5123361;27;45427;-67
2022/08/15 01:06:29;;;;;;;;;17.25;16.00;;;;;23.08;62.55;100131.09;5122624;27;45300;-67
2022/08/15 01:08:55;;;;;;;;;18.00;17.50;;;;;23.14;62.54;100152.28;5122878;27;45407;-67
2022/08/15 01:11:20;;;;;;;;;18.25;18.00;;;;;23.13;62.71;100151.41;5107751;27;45248;-67
2022/08/15 01:13:47;;;;;;;;;21.00;18.67;;;;;23.10;62.17;100138.13;5102709;27;45241;-67
2022/08/15 01:16:14;;;;;;;;;19.00;19.00;;;;;23.08;62.28;100134.66;5120674;27;45266;-67
2022/08/15 01:18:41;;;;;;;;;17.75;14.75;;;;;23.08;62.13;100133.81;5102509;27;45357;-67
2022/08/15 01:22:00;;;;;;;;;17.00;16.75;;;;;23.11;62.38;100144.41;5105969;27;45627;-67
2022/08/15 01:24:58;;;;;;;;;18.50;16.75;;;;;23.11;62.31;100150.72;5058579;27;45316;-67
2022/08/15 01:27:27;;;;;;;;;19.00;18.00;;;;;23.11;62.17;100144.41;5082204;27;45322;-67
2022/08/15 01:29:54;;;;;;;;;20.75;17.50;;;;;23.08;62.30;100131.09;5101994;27;46205;-67
2022/08/15 01:32:20;;;;;;;;;18.00;17.00;;;;;23.10;62.55;100137.25;5102042;27;45173;-67
2022/08/15 01:34:46;;;;;;;;;22.50;20.75;;;;;23.08;62.26;100142.81;5102144;27;45279;-67
2022/08/15 01:37:12;;;;;;;;;19.00;17.25;;;;;23.06;62.24;100141.25;5101543;27;45291;-67
2022/08/15 01:39:54;;;;;;;;;20.50;19.50;;;;;23.07;62.14;100138.41;5101910;27;46104;-67
2022/08/15 01:42:29;;;;;;;;;26.25;23.00;;;;;23.07;62.40;100145.69;5101868;27;45176;-67
2022/08/15 01:45:16;;;;;;;;;19.50;18.50;;;;;23.06;62.00;100138.50;5102108;27;45215;-67
2022/08/15 01:47:49;;;;;;;;;19.75;19.75;;;;;23.02;62.29;100147.97;5101893;27;45299;-67
2022/08/15 01:50:35;;;;;;;;;20.25;16.75;;;;;23.00;62.33;100139.09;5100337;27;46252;-67
2022/08/15 01:53:23;;;;;;;;;20.25;18.25;;;;;23.00;62.22;100137.22;5109965;27;45602;-67
2022/08/15 01:55:59;;;;;;;;;17.00;15.50;;;;;23.01;62.14;100138.09;5115813;27;45204;-67
2022/08/15 01:58:26;;;;;;;;;19.25;19.00;;;;;23.01;62.28;100128.06;5100911;27;45609;-67
2022/08/15 02:00:56;;;;;;;;;16.50;14.75;;;;;23.03;62.02;100138.81;5101458;27;45319;-67
2022/08/15 02:03:33;;;;;;;;;22.25;20.50;;;;;23.04;62.04;100132.38;5101655;27;45661;-67
2022/08/15 02:06:04;;;;;;;;;23.25;20.50;;;;;23.03;62.01;100136.06;5101094;27;45480;-67
2022/08/15 02:08:30;;;;;;;;;21.25;20.00;;;;;23.03;61.83;100131.47;5101471;27;45615;-67
2022/08/15 02:10:56;;;;;;;;;18.00;17.25;;;;;23.06;61.63;100136.66;5112934;27;45290;-67
2022/08/15 02:13:23;;;;;;;;;18.25;15.50;;;;;23.06;61.93;100131.22;5122056;27;45499;-67
2022/08/15 02:15:48;;;;;;;;;26.50;24.00;;;;;22.99;61.52;100124.63;5105268;27;45267;-67
2022/08/15 02:18:14;;;;;;;;;19.50;18.75;;;;;23.01;62.03;100127.22;5101348;27;45511;-67
2022/08/15 02:20:39;;;;;;;;;21.50;19.75;;;;;23.00;61.76;100129.03;5101126;27;45455;-67
2022/08/15 02:23:05;;;;;;;;;20.75;18.00;;;;;23.00;61.85;100129.03;5109577;27;49236;-67
2022/08/15 02:25:30;;;;;;;;;18.00;18.00;;;;;22.98;61.63;100113.88;5101256;27;45310;-67
2022/08/15 02:27:56;;;;;;;;;19.50;19.25;;;;;22.98;61.86;100122.06;5101098;27;45424;-66
2022/08/15 02:30:25;;;;;;;;;18.25;15.75;;;;;22.93;61.82;100126.03;5101099;27;46203;-66
2022/08/15 02:32:50;;;;;;;;;21.50;19.00;;;;;22.93;62.03;100115.16;5101095;27;45282;-66
2022/08/15 02:35:17;;;;;;;;;21.75;21.75;;;;;22.94;61.92;100116.88;5101093;27;45532;-66
2022/08/15 02:37:44;;;;;;;;;19.00;17.75;;;;;22.96;61.73;100118.63;5100814;27;45245;-66
2022/08/15 02:40:14;;;;;;;;;19.25;17.00;;;;;22.92;61.89;100105.31;5100853;27;46175;-66
2022/08/15 02:42:41;;;;;;;;;20.75;20.75;;;;;22.92;61.52;100113.47;5100960;27;45953;-66
2022/08/15 02:45:12;;;;;;;;;18.75;18.00;;;;;22.90;61.80;100101.88;5082626;27;45425;-66
2022/08/15 02:47:41;;;;;;;;;20.00;19.50;;;;;22.91;61.60;100108.16;5100931;27;45489;-66
2022/08/15 02:50:07;;;;;;;;;21.00;20.00;;;;;22.91;61.56;100100.84;5100484;27;46341;-66
2022/08/15 02:52:38;;;;;;;;;21.25;21.25;;;;;22.88;61.70;100098.41;5109606;27;45445;-66
2022/08/15 02:55:03;;;;;;;;;20.50;18.75;;;;;22.91;62.08;100106.28;5106899;27;45381;-66
2022/08/15 02:57:32;;;;;;;;;19.50;19.00;;;;;22.89;61.91;100102.88;5100739;27;45169;-66
2022/08/15 02:59:57;;;;;;;;;21.25;20.50;;;;;22.92;61.80;100104.41;5100596;27;46609;-67
2022/08/15 03:02:23;;;;;;;;;22.25;22.25;;;;;22.89;61.77;100100.13;5100614;27;45247;-67
2022/08/15 03:04:49;;;;;;;;;18.50;18.00;;;;;22.87;61.49;100090.38;5100874;27;45155;-67
2022/08/15 03:07:14;;;;;;;;;16.75;16.25;;;;;22.86;61.56;100099.56;5099226;27;45571;-66
2022/08/15 03:09:39;;;;;;;;;21.75;21.50;;;;;22.86;61.33;100097.69;5101452;27;45336;-66
2022/08/15 03:12:05;;;;;;;;;22.00;19.25;;;;;22.86;61.60;100096.84;5121166;27;48859;-66
2022/08/15 03:14:31;;;;;;;;;22.00;19.50;;;;;22.84;61.54;100102.44;5115355;27;45508;-66
2022/08/15 03:16:57;;;;;;;;;24.00;22.00;;;;;22.85;61.66;100100.56;5100346;27;46159;-66
2022/08/15 03:19:26;;;;;;;;;22.75;21.50;;;;;22.82;61.97;100095.41;5099205;27;45582;-66
2022/08/15 03:21:52;;;;;;;;;19.25;16.75;;;;;22.81;61.82;100094.56;5102214;27;45268;-66
2022/08/15 03:24:19;;;;;;;;;22.50;20.25;;;;;22.81;61.70;100089.13;5105638;27;45217;-66
2022/08/15 03:26:46;;;;;;;;;20.75;20.50;;;;;22.84;61.55;100088.00;5100283;27;45498;-66
2022/08/15 03:29:18;;;;;;;;;23.75;22.50;;;;;22.84;61.85;100088.00;5100239;27;47051;-66
2022/08/15 03:31:47;;;;;;;;;26.50;25.00;;;;;22.85;61.72;100081.53;5100170;27;45222;-66
2022/08/15 03:34:14;;;;;;;;;21.50;21.25;;;;;22.86;61.76;100091.41;5100335;27;45332;-66
2022/08/15 03:36:40;;;;;;;;;24.00;24.00;;;;;22.83;61.75;100089.81;5099896;27;45452;-66
2022/08/15 03:39:05;;;;;;;;;24.50;22.50;;;;;22.79;61.73;100082.97;5100046;27;46094;-66
2022/08/15 03:41:31;;;;;;;;;25.25;24.00;;;;;22.83;61.68;100084.38;5100119;27;45225;-66
2022/08/15 03:43:56;;;;;;;;;26.00;25.25;;;;;22.81;61.95;100089.13;5100460;27;45819;-66
2022/08/15 03:46:22;;;;;;;;;24.75;22.50;;;;;22.78;61.93;100089.41;5100147;27;45259;-66
2022/08/15 03:48:52;;;;;;;;;21.75;21.00;;;;;22.80;61.53;100090.13;5099889;27;46427;-66
2022/08/15 03:51:21;;;;;;;;;18.75;16.00;;;;;22.80;61.87;100081.94;5099792;27;45312;-66
2022/08/15 03:53:50;;;;;;;;;27.75;26.00;;;;;22.80;61.76;100075.66;5115377;27;45247;-66
2022/08/15 03:56:21;;;;;;;;;23.50;21.75;;;;;22.78;61.71;100073.06;5120534;27;46500;-66
2022/08/15 03:58:47;;;;;;;;;22.75;20.25;;;;;22.75;61.60;100076.97;5101700;27;45309;-66
2022/08/15 04:01:17;;;;;;;;;21.50;21.00;;;;;22.73;61.70;100072.66;5099995;27;45407;-66
2022/08/15 04:03:44;;;;;;;;;26.50;25.00;;;;;22.72;61.58;100074.53;5113028;27;45424;-66
2022/08/15 04:06:12;;;;;;;;;23.75;20.50;;;;;22.70;61.50;100072.94;5107235;27;45287;-66
2022/08/15 04:08:38;;;;;;;;;22.25;21.50;;;;;22.67;61.55;100063.22;5099486;27;46214;-66
2022/08/15 04:11:06;;;;;;;;;22.75;22.00;;;;;22.68;61.89;100064.06;5112531;27;45267;-66
2022/08/15 04:13:32;;;;;;;;;23.75;20.25;;;;;22.64;61.45;100058.06;5122048;27;45375;-66
2022/08/15 04:16:00;;;;;;;;;23.75;23.75;;;;;22.63;62.04;100063.66;5105563;27;45441;-66
2022/08/15 04:18:29;;;;;;;;;20.50;19.50;;;;;22.62;61.46;100064.63;5103118;27;46157;-66
2022/08/15 04:20:57;;;;;;;;;23.25;21.75;;;;;22.57;61.76;100068.66;5103128;27;45495;-66
2022/08/15 04:23:23;;;;;;;;;20.75;19.50;;;;;22.56;61.97;100061.50;5110236;27;45513;-66
2022/08/15 04:25:49;;;;;;;;;24.50;20.50;;;;;22.54;61.26;100066.22;5123528;27;45538;-66
2022/08/15 04:28:17;;;;;;;;;20.50;20.25;;;;;22.54;61.46;100060.78;5123762;27;45281;-66
2022/08/15 04:30:45;;;;;;;;;22.75;20.25;;;;;22.55;61.34;100067.06;5123231;27;45486;-67
2022/08/15 04:33:12;;;;;;;;;21.50;19.25;;;;;22.52;61.71;100068.25;5122829;27;45417;-67
2022/08/15 04:35:40;;;;;;;;;21.00;21.00;;;;;22.44;61.78;100062.66;5108625;27;45570;-67
2022/08/15 04:38:06;;;;;;;;;21.50;19.25;;;;;22.45;61.51;100072.50;5103043;27;46431;-67
2022/08/15 04:40:33;;;;;;;;;17.75;15.75;;;;;22.44;61.41;100076.25;5102858;27;45235;-67
2022/08/15 04:42:59;;;;;;;;;19.50;17.75;;;;;22.39;61.42;100063.06;5103167;27;45232;-66
2022/08/15 04:45:30;;;;;;;;;20.75;19.50;;;;;22.39;61.48;100073.09;5102713;27;45302;-66
2022/08/15 04:47:56;;;;;;;;;14.25;12.75;;;;;22.35;61.36;100063.50;5102804;27;47140;-67
2022/08/15 04:50:22;;;;;;;;;20.75;20.25;;;;;22.34;61.04;100068.09;5102432;27;45472;-67
2022/08/15 04:52:51;;;;;;;;;19.75;17.50;;;;;22.34;61.22;100064.53;5102951;27;45323;-66
2022/08/15 04:55:17;;;;;;;;;21.25;20.50;;;;;22.31;61.48;100056.66;5102702;27;45317;-66
2022/08/15 04:57:43;;;;;;;;;20.00;20.00;;;;;22.30;61.17;100052.19;5102622;27;46179;-66
2022/08/15 05:00:11;;;;;;;;;19.75;18.25;;;;;22.28;61.23;100054.16;5102600;27;45460;-66
2022/08/15 05:02:37;;;;;;;;;18.00;16.50;;;;;22.27;60.62;100055.16;5110237;27;45298;-66
2022/08/15 05:05:06;;;;;;;;;18.75;18.75;;;;;22.26;61.41;100046.16;5120064;27;45528;-66
2022/08/15 05:07:32;;;;;;;;;18.00;18.00;;;;;22.25;60.95;100049.88;5102097;27;46156;-66
2022/08/15 05:09:59;;;;;;;;;18.25;17.00;;;;;22.24;61.23;100041.88;5105890;27;45468;-66
2022/08/15 05:12:26;;;;;;;;;18.00;18.00;;;;;22.20;61.30;100042.16;5123358;27;45152;-66
2022/08/15 05:14:51;;;;;;;;;19.25;16.75;;;;;22.22;61.04;100036.59;5114371;27;45528;-66
2022/08/15 05:17:17;;;;;;;;;17.50;17.50;;;;;22.21;61.04;100041.13;5102073;27;46277;-66
2022/08/15 05:19:42;;;;;;;;;21.00;18.50;;;;;22.21;61.06;100045.72;5102208;27;45342;-66
2022/08/15 05:22:08;;;;;;;;;17.50;15.75;;;;;22.18;61.16;100055.00;5102276;27;45362;-66
2022/08/15 05:24:35;;;;;;;;;18.50;18.50;;;;;22.15;61.37;100044.44;5102256;27;45544;-66
2022/08/15 05:27:00;;;;;;;;;18.50;18.00;;;;;22.15;60.91;100047.16;5102065;27;45459;-66
2022/08/15 05:29:26;;;;;;;;;17.75;16.75;;;;;22.13;61.16;100046.41;5102091;27;45345;-66
2022/08/15 05:31:52;;;;;;;;;18.25;18.25;;;;;22.11;61.00;100047.56;5103300;27;45355;-66
2022/08/15 05:34:19;;;;;;;;;16.50;16.25;;;;;22.12;61.19;100046.56;5119101;27;45475;-66
2022/08/15 05:36:48;;;;;;;;;17.75;17.75;;;;;22.10;60.67;100037.69;5100902;27;45539;-66
2022/08/15 05:39:21;;;;;;;;;18.75;18.00;;;;;22.10;61.35;100035.84;5101800;27;45172;-66
2022/08/15 05:42:14;;;;;;;;;21.00;21.00;;;;;22.08;61.33;100047.84;5102206;27;46195;-66
2022/08/15 05:44:58;;;;;;;;;24.50;22.25;;;;;22.06;61.57;100044.44;5111133;27;45416;-66
2022/08/15 05:47:35;;;;;;;;;20.25;20.00;;;;;22.05;61.11;100054.41;5122284;27;46503;-66
2022/08/15 05:50:27;;;;;;;;;21.50;20.50;;;;;22.01;61.00;100037.53;5122244;27;45333;-66
2022/08/15 05:53:48;;;;;;;;;20.00;20.00;;;;;22.04;61.01;100041.84;5122443;27;45341;-66
2022/08/15 05:56:30;;;;;;;;;24.00;21.50;;;;;22.03;61.37;100056.41;5034255;27;45316;-66
2022/08/15 05:59:02;;;;;;;;;19.75;19.00;;;;;22.03;61.08;100048.28;5122152;27;45471;-66
2022/08/15 06:01:32;;;;;;;;;24.25;23.25;;;;;22.01;61.00;100053.00;5121188;27;45626;-66
2022/08/15 06:04:08;;;;;;;;;19.50;17.25;;;;;21.99;60.56;100055.00;5106730;27;45277;-66
2022/08/15 06:06:36;;;;;;;;;17.75;17.75;;;;;21.94;61.14;100051.84;5119937;27;45322;-66
2022/08/15 06:09:23;;;;;;;;;18.75;18.75;;;;;21.95;61.10;100059.84;5101412;27;46985;-66
2022/08/15 06:11:53;;;;;;;;;19.00;18.75;;;;;21.97;61.18;100055.13;5120613;27;45530;-66
2022/08/15 06:14:38;;;;;;;;;19.25;19.25;;;;;21.97;61.22;100062.44;5118301;27;45319;-66
2022/08/15 06:17:12;;;;;;;;;20.25;18.50;;;;;21.95;60.70;100058.97;5101271;27;45169;-66
2022/08/15 06:19:42;;;;;;;;;15.50;14.00;;;;;21.95;60.51;100057.16;5101279;27;45394;-66
2022/08/15 06:22:10;;;;;;;;;17.50;17.50;;;;;21.96;60.88;100056.13;5101001;27;45574;-66
2022/08/15 06:24:53;;;;;;;;;18.00;15.75;;;;;21.98;61.16;100055.97;5101345;27;45400;-66
2022/08/15 06:27:29;;;;;;;;;16.50;16.00;;;;;22.00;61.03;100051.25;5101137;27;45455;-66
2022/08/15 06:30:06;;;;;;;;;18.75;17.00;;;;;22.01;60.46;100053.00;5108901;27;46243;-66
2022/08/15 06:32:32;;;;;;;;;17.00;16.00;;;;;21.99;60.29;100046.84;5120764;27;45546;-66
2022/08/15 06:35:17;;;;;;;;;17.00;17.00;;;;;22.02;60.30;100046.56;5112645;27;45205;-66
2022/08/15 06:37:52;;;;;;;;;17.75;17.25;;;;;22.04;60.59;100044.56;5100638;27;45298;-66
2022/08/15 06:40:27;;;;;;;;;21.25;20.00;;;;;22.08;60.80;100042.41;5100929;27;46234;-66
2022/08/15 06:42:54;;;;;;;;;17.75;17.75;;;;;22.08;60.76;100047.84;5108302;27;45386;-66
2022/08/15 06:45:34;;;;;;;;;21.00;19.25;;;;;22.01;60.83;100039.41;5121677;27;45298;-66
2022/08/15 06:48:05;;;;;;;;;15.75;14.25;;;;;22.09;60.88;100050.44;5121692;27;46169;-66
2022/08/15 06:50:36;;;;;;;;;17.50;16.25;;;;;22.09;61.07;100047.72;5121066;27;46733;-66
2022/08/15 06:53:31;;;;;;;;;14.50;14.50;;;;;22.05;60.82;100046.25;5121608;27;45459;-66
2022/08/15 06:55:56;;;;;;;;;17.25;15.50;;;;;22.08;60.71;100046.00;5121627;27;45309;-66
2022/08/15 06:58:37;;;;;;;;;19.67;18.67;;;;;22.09;60.87;100042.28;5120457;27;45272;-66
2022/08/15 07:01:19;;;;;;;;;17.50;16.25;;;;;22.09;61.06;100042.28;5109821;27;46979;-67
2022/08/15 07:04:01;;;;;;;;;15.75;15.25;;;;;22.06;60.94;100039.84;5100581;27;45156;-67
2022/08/15 07:06:43;;;;;;;;;21.00;19.25;;;;;22.06;61.25;100037.13;5100223;27;45472;-67
2022/08/15 07:09:54;;;;;;;;;16.75;15.25;;;;;22.00;61.32;100033.13;5100697;27;45308;-67
2022/08/15 07:13:04;;;;;;;;;18.25;17.25;;;;;22.05;61.53;100042.69;5109979;27;46645;-67
2022/08/15 07:15:48;;;;;;;;;20.00;19.00;;;;;22.08;61.95;100042.41;5097403;27;45455;-67
2022/08/15 07:18:28;;;;;;;;;18.25;15.75;;;;;22.10;61.76;100049.44;5105540;27;45575;-67
2022/08/15 07:21:25;;;;;;;;;19.25;15.75;;;;;22.12;60.83;100044.72;5120594;27;45556;-67
2022/08/15 07:24:08;;;;;;;;;22.25;17.25;;;;;22.15;61.38;100038.13;5093553;27;46186;-67
2022/08/15 07:26:46;;;;;;;;;19.50;19.25;;;;;22.14;61.12;100053.59;5100271;27;45375;-67
2022/08/15 07:29:18;;;;;;;;;14.75;14.25;;;;;22.10;61.29;100051.28;5102253;27;45310;-67
2022/08/15 07:31:44;;;;;;;;;14.50;14.50;;;;;22.11;61.68;100050.28;5111845;27;45425;-67
2022/08/15 07:34:22;;;;;;;;;15.50;15.50;;;;;22.16;61.30;100053.44;5100076;27;46174;-67
2022/08/15 07:37:01;;;;;;;;;17.25;14.50;;;;;22.19;61.16;100050.44;5099778;27;45402;-67
2022/08/15 07:39:34;;;;;;;;;16.00;14.25;;;;;22.21;61.16;100043.84;5100266;27;45406;-67
2022/08/15 07:42:15;;;;;;;;;14.25;14.25;;;;;22.22;60.94;100050.16;5100173;27;45161;-67
2022/08/15 07:44:50;;;;;;;;;19.50;16.50;;;;;22.27;61.21;100047.00;5108870;27;45456;-66
2022/08/15 07:47:25;;;;;;;;;12.25;12.00;;;;;22.32;61.19;100053.78;5120576;27;45540;-66
2022/08/15 07:50:10;;;;;;;;;15.50;15.50;;;;;22.37;60.76;100050.66;5123279;27;45475;-66
2022/08/15 07:52:37;;;;;;;;;13.50;13.25;;;;;22.41;60.64;100051.22;5103589;27;46252;-66
2022/08/15 07:55:20;;;;;;;;;15.25;14.25;;;;;22.43;60.36;100043.75;5103618;27;46536;-66
2022/08/15 07:58:05;;;;;;;;;15.75;13.50;;;;;22.45;60.53;100050.75;5112541;27;45313;-66
2022/08/15 08:00:34;;;;;;;;;12.25;12.25;;;;;22.48;60.62;100047.75;5124231;27;45275;-66
2022/08/15 08:03:27;;;;;;;;;11.50;10.50;;;;;22.51;60.51;100052.06;5122096;27;45467;-66
2022/08/15 08:06:12;;;;;;;;;15.75;15.75;;;;;22.52;60.42;100046.47;5121174;27;45511;-66
2022/08/15 08:08:44;;;;;;;;;14.75;13.00;;;;;22.53;60.14;100047.34;5105476;27;45434;-66
2022/08/15 08:11:25;;;;;;;;;12.75;11.50;;;;;22.53;59.89;100056.34;5117016;27;45370;-66
2022/08/15 08:14:00;;;;;;;;;9.75;9.75;;;;;22.53;60.19;100042.75;5124005;27;45497;-66
2022/08/15 08:16:35;;;;;;;;;12.50;11.00;;;;;22.60;59.90;100045.75;5115497;27;45401;-66
2022/08/15 08:19:27;;;;;;;;;14.00;12.25;;;;;22.62;60.47;100038.31;5103353;27;45354;-66
2022/08/15 08:22:07;;;;;;;;;11.25;11.25;;;;;22.63;59.83;100048.19;5110920;27;45316;-66
2022/08/15 08:24:50;;;;;;;;;11.75;11.50;;;;;22.65;59.93;100048.03;5123904;27;46428;-66
2022/08/15 08:27:22;;;;;;;;;11.50;10.75;;;;;22.65;59.86;100050.75;5123605;27;45428;-66
2022/08/15 08:30:03;;;;;;;;;10.50;10.50;;;;;22.65;60.17;100048.88;5123638;27;45269;-66
2022/08/15 08:32:34;;;;;;;;;11.25;11.25;;;;;22.64;60.12;100049.06;5123789;27;45325;-66
2022/08/15 08:35:18;;;;;;;;;13.75;10.00;;;;;22.66;60.79;100050.63;5123532;27;45302;-66
2022/08/15 08:37:59;;;;;;;;;13.00;11.75;;;;;22.65;60.35;100040.72;5123213;27;46375;-66
2022/08/15 08:44:08;;;;;;;;;10.75;10.00;;;;;22.73;59.61;100040.84;5123799;27;45267;-66
2022/08/15 08:46:55;;;;;;;;;9.00;9.00;;;;;22.78;59.86;100051.31;5014142;28;46211;-66
2022/08/15 08:49:38;;;;;;;;;10.75;9.75;;;;;22.79;60.42;100046.72;5122849;27;46369;-66
2022/08/15 08:52:35;;;;;;;;;10.00;10.00;;;;;22.81;59.48;100039.28;5122981;27;45256;-66
2022/08/15 08:55:08;;;;;;;;;10.50;10.00;;;;;22.85;59.54;100037.97;5088024;27;45448;-66
2022/08/15 08:57:40;;;;;;;;;8.25;8.25;;;;;22.87;59.89;100035.97;5123078;27;45554;-66
2022/08/15 09:00:18;;;;;;;;;9.75;8.75;;;;;22.88;59.84;100046.72;5122696;27;47132;-66
2022/08/15 09:02:52;;;;;;;;;9.00;8.25;;;;;22.85;59.26;100036.13;5123292;27;45214;-66
2022/08/15 09:05:36;;;;;;;;;11.00;9.50;;;;;22.93;59.42;100043.56;5123090;27;45442;-66
2022/08/15 09:08:18;;;;;;;;;7.75;7.00;;;;;22.92;59.95;100044.53;5122127;27;45585;-66
2022/08/15 09:10:49;;;;;;;;;7.75;7.75;;;;;22.92;60.20;100048.16;5113200;27;47023;-66
2022/08/15 09:13:34;;;;;;;;;5.00;5.00;;;;;22.91;60.01;100051.00;5102409;27;45414;-66
2022/08/15 09:16:10;;;;;;;;;8.25;7.75;;;;;22.93;60.35;100058.00;5119188;27;45420;-66
2022/08/15 09:19:11;;;;;;;;;6.25;6.25;;;;;22.96;59.89;100056.03;5102301;27;45251;-66
2022/08/15 09:21:37;;;;;;;;;5.75;5.75;;;;;22.98;60.00;100048.56;5064073;27;45637;-66
2022/08/15 09:24:04;;;;;;;;;8.00;8.00;;;;;23.03;59.38;100051.69;5091604;27;45276;-66
2022/08/15 09:26:40;;;;;;;;;6.75;6.00;;;;;22.99;59.75;100050.25;5102229;27;45303;-66
2022/08/15 09:29:24;;;;;;;;;4.00;4.00;;;;;22.94;60.27;100051.56;5112544;27;45487;-66
2022/08/15 09:32:14;;;;;;;;;6.75;5.25;;;;;22.97;60.24;100046.84;5102111;27;45401;-67
2022/08/15 09:35:13;;;;;;;;;5.00;4.00;;;;;23.00;60.27;100054.72;5101767;27;45483;-66
2022/08/15 09:38:16;;;;;;;;;3.50;3.00;;;;;23.03;60.73;100048.97;5101984;27;45326;-66
2022/08/15 09:40:54;;;;;;;;;3.00;3.00;;;;;23.00;60.26;100052.84;5101775;27;45539;-66
2022/08/15 09:43:33;;;;;;;;;4.00;4.00;;;;;23.02;60.19;100055.41;5101076;27;45467;-66
2022/08/15 09:46:17;;;;;;;;;2.50;2.50;;;;;23.07;60.30;100062.19;5101667;27;45602;-66
2022/08/15 09:49:27;;;;;;;;;3.50;3.50;;;;;23.07;60.68;100062.19;5101994;27;45347;-66
2022/08/15 09:52:29;;;;;;;;;6.25;4.75;;;;;23.16;60.54;100068.59;5075165;27;45208;-66
2022/08/15 09:55:01;;;;;;;;;5.00;5.00;;;;;23.15;60.50;100057.88;5090842;27;47350;-66
2022/08/15 09:57:39;;;;;;;;;6.00;4.50;;;;;23.22;60.24;100070.75;5101494;27;45398;-66
2022/08/15 10:00:29;;;;;;;;;5.50;5.50;;;;;23.18;60.07;100063.88;5116805;27;45559;-66
2022/08/15 10:03:01;;;;;;;;;3.75;3.75;;;;;23.22;59.97;100070.75;5122307;27;45489;-66
2022/08/15 10:06:00;;;;;;;;;5.25;5.00;;;;;23.24;59.92;100068.72;5121676;27;46328;-66
2022/08/15 10:08:51;;;;;;;;;6.50;5.25;;;;;23.22;59.60;100062.59;5122039;27;45519;-66
2022/08/15 10:11:31;;;;;;;;;4.25;3.75;;;;;23.22;59.72;100069.88;5106591;27;45314;-66
2022/08/15 10:14:05;;;;;;;;;7.00;5.25;;;;;23.19;59.92;100075.59;5102168;27;45453;-66
2022/08/15 10:16:36;;;;;;;;;7.00;7.00;;;;;23.18;59.99;100065.75;5116985;27;45450;-66
2022/08/15 10:19:02;;;;;;;;;4.25;4.25;;;;;23.19;60.57;100073.75;5101324;27;45224;-66
2022/08/15 10:21:35;;;;;;;;;7.00;7.00;;;;;23.18;59.92;100071.19;5101220;27;45271;-66
2022/08/15 10:24:03;;;;;;;;;5.75;5.75;;;;;23.08;60.27;100063.03;5101286;27;45479;-66
2022/08/15 10:26:31;;;;;;;;;7.75;7.75;;;;;23.10;60.42;100061.91;5100864;27;46176;-66
2022/08/15 10:29:04;;;;;;;;;7.00;7.00;;;;;23.11;60.16;100066.31;5110559;27;45536;-66
2022/08/15 10:31:40;;;;;;;;;7.00;6.00;;;;;23.13;60.32;100068.91;5117816;27;45396;-66
2022/08/15 10:34:29;;;;;;;;;5.50;5.50;;;;;23.14;60.04;100067.91;5106014;27;45342;-66
2022/08/15 10:37:16;;;;;;;;;6.25;6.25;;;;;23.17;60.27;100067.63;5100613;27;46623;-66
2022/08/15 10:40:06;;;;;;;;;7.25;6.75;;;;;23.22;60.07;100069.88;5109226;27;45239;-66
2022/08/15 10:42:47;;;;;;;;;4.75;4.75;;;;;23.27;60.12;100067.56;5120822;27;45422;-65
2022/08/15 10:45:41;;;;;;;;;5.25;4.50;;;;;23.28;60.26;100072.00;5121629;27;45409;-65
2022/08/15 10:48:26;;;;;;;;;6.75;6.75;;;;;23.27;60.62;100073.00;5103022;27;47835;-66
2022/08/15 10:51:10;;;;;;;;;5.75;5.75;;;;;23.32;59.93;100067.97;5121164;27;45183;-66
2022/08/15 10:53:40;;;;;;;;;7.75;6.00;;;;;23.36;59.78;100066.69;5121573;27;45200;-66
2022/08/15 10:56:14;;;;;;;;;6.25;6.25;;;;;23.41;59.96;100066.25;5121584;27;45312;-66
2022/08/15 10:58:40;;;;;;;;;3.25;3.25;;;;;23.45;59.97;100070.38;5120229;27;47309;-66
2022/08/15 11:01:31;;;;;;;;;5.00;5.00;;;;;23.48;59.80;100070.06;5110580;27;45340;-66
2022/08/15 11:04:09;;;;;;;;;4.50;4.50;;;;;23.51;59.62;100064.34;5100904;27;45229;-66
2022/08/15 11:06:45;;;;;;;;;4.00;4.00;;;;;23.54;59.67;100064.03;5100318;27;45627;-66
2022/08/15 11:09:17;;;;;;;;;4.50;4.50;;;;;23.51;59.83;100044.41;5100532;27;46520;-66
2022/08/15 11:12:05;;;;;;;;;3.50;3.50;;;;;23.55;59.97;100054.84;5118695;27;45394;-66
2022/08/15 11:14:38;;;;;;;;;4.25;4.25;;;;;23.53;59.81;100059.59;5115729;27;45443;-66
2022/08/15 11:17:12;;;;;;;;;4.75;4.75;;;;;23.50;59.65;100057.16;5100406;27;45325;-66
2022/08/15 11:19:43;;;;;;;;;6.00;6.00;;;;;23.49;59.99;100060.91;5100202;27;45299;-66
2022/08/15 11:22:17;;;;;;;;;8.75;7.50;;;;;23.47;60.15;100068.34;5101621;27;45319;-66
2022/08/15 11:24:54;;;;;;;;;5.00;5.00;;;;;23.45;60.98;100067.63;5104289;27;45337;-66
2022/08/15 11:27:24;;;;;;;;;6.00;6.00;;;;;23.43;61.25;100066.94;5103915;27;45243;-66
2022/08/15 11:29:52;;;;;;;;;8.75;8.75;;;;;23.46;61.43;100069.38;5122404;27;46227;-66
2022/08/15 11:32:26;;;;;;;;;6.00;6.00;;;;;23.47;61.12;100073.78;5110411;27;45500;-66
2022/08/15 11:34:53;;;;;;;;;6.75;6.00;;;;;23.48;62.11;100079.09;5103938;27;45277;-66
2022/08/15 11:37:24;;;;;;;;;7.00;6.00;;;;;23.44;62.18;100077.69;5116915;27;45320;-66
2022/08/15 11:39:58;;;;;;;;;7.25;7.25;;;;;23.44;62.36;100079.56;5115357;27;46221;-66
2022/08/15 11:42:26;;;;;;;;;8.75;8.00;;;;;23.45;62.34;100081.25;5103395;27;45222;-66
2022/08/15 11:44:56;;;;;;;;;11.00;11.00;;;;;23.43;62.21;100078.69;5104219;27;45303;-66
2022/08/15 11:47:23;;;;;;;;;7.50;7.50;;;;;23.39;61.87;100074.56;5103699;27;45631;-66
2022/08/15 11:49:59;;;;;;;;;9.50;8.25;;;;;23.38;61.64;100070.09;5103708;27;46504;-66
2022/08/15 11:52:32;;;;;;;;;10.00;9.00;;;;;23.34;62.04;100074.16;5103551;27;45296;-66